Time;durP1;ratioP1;P1;durP2;ratioP2;P2;SDS_P1;SDS_P2;PMS_P1;PMS_P2;Temp;Humidity;BMP_temperature;BMP_pressure;BME280_temperature;BME280_humidity;BME280_pressure;Samples;Min_cycle;Max_cycle;Signal;HPM_P1;HPM_P2
2022/08/21 00:00:30;;;;;;;10.95;5.03;;;22.40;99.90;;;;;;5074983;28;20020;-87
2022/08/21 00:03:01;;;;;;;13.23;6.50;;;22.40;99.90;;;;;;5060422;28;20530;-78
2022/08/21 00:05:27;;;;;;;11.02;4.85;;;22.40;99.90;;;;;;5042877;28;20062;-89
2022/08/21 00:07:53;;;;;;;9.63;4.57;;;22.30;99.90;;;;;;5060357;28;20523;-81
2022/08/21 00:10:19;;;;;;;14.60;4.95;;;22.20;99.90;;;;;;5060549;28;20059;-78
2022/08/21 00:12:46;;;;;;;10.30;4.57;;;22.10;99.90;;;;;;5040761;28;20055;-83
2022/08/21 00:15:16;;;;;;;11.18;4.50;;;22.10;99.90;;;;;;5041241;28;20086;-82
2022/08/21 00:17:42;;;;;;;9.35;4.82;;;22.20;99.90;;;;;;5060076;28;20024;-75
2022/08/21 00:20:11;;;;;;;11.00;4.40;;;22.20;99.90;;;;;;5059372;28;20091;-75
2022/08/21 00:22:37;;;;;;;13.23;5.15;;;22.10;99.90;;;;;;5044411;28;20561;-77
2022/08/21 00:25:10;;;;;;;10.68;4.15;;;22.10;99.90;;;;;;5062887;28;20017;-77
2022/08/21 00:27:37;;;;;;;10.15;4.25;;;22.00;99.90;;;;;;5063606;28;20020;-86
2022/08/21 00:30:05;;;;;;;10.20;4.25;;;22.10;99.90;;;;;;5064201;28;20028;-78
2022/08/21 00:32:32;;;;;;;9.55;4.47;;;22.10;99.90;;;;;;5064162;28;20392;-90
2022/08/21 00:34:58;;;;;;;10.68;4.82;;;22.10;99.90;;;;;;5070088;28;20024;-87
2022/08/21 00:37:27;;;;;;;13.80;5.40;;;22.00;99.90;;;;;;5070724;28;20689;-78
2022/08/21 00:39:53;;;;;;;9.75;4.70;;;22.00;99.90;;;;;;5069575;28;20029;-85
2022/08/21 00:42:20;;;;;;;10.20;5.47;;;21.70;99.90;;;;;;5072110;28;20102;-79
2022/08/21 00:44:48;;;;;;;8.75;3.92;;;21.70;99.90;;;;;;5069363;28;20104;-74
2022/08/21 00:47:14;;;;;;;14.93;5.93;;;21.80;99.90;;;;;;5064668;28;20032;-81
2022/08/21 00:49:40;;;;;;;12.30;5.65;;;21.80;99.90;;;;;;5063397;28;20020;-83
2022/08/21 00:52:10;;;;;;;12.80;5.35;;;21.50;99.90;;;;;;5062893;28;20039;-84
2022/08/21 00:54:40;;;;;;;11.18;5.40;;;21.40;99.90;;;;;;5044642;28;20075;-92
2022/08/21 00:57:15;;;;;;;12.15;6.65;;;21.30;99.90;;;;;;5062528;28;20012;-77
2022/08/21 00:59:45;;;;;;;10.88;4.53;;;20.80;99.90;;;;;;5061791;28;20250;-83
2022/08/21 01:02:11;;;;;;;10.52;4.35;;;20.90;99.90;;;;;;5061843;28;20082;-81
2022/08/21 01:04:38;;;;;;;10.93;4.82;;;20.90;99.90;;;;;;5044248;28;20097;-89
2022/08/21 01:07:04;;;;;;;11.40;4.97;;;21.20;99.90;;;;;;5043693;28;20020;-79
2022/08/21 01:09:30;;;;;;;11.15;5.22;;;21.30;99.90;;;;;;5061833;28;20021;-79
2022/08/21 01:11:56;;;;;;;11.35;4.80;;;21.40;99.90;;;;;;5044142;28;20031;-83
2022/08/21 01:14:22;;;;;;;12.43;4.57;;;21.40;99.90;;;;;;5062167;28;20736;-83
2022/08/21 01:16:51;;;;;;;11.75;5.25;;;22.40;99.90;;;;;;5062047;28;20099;-74
2022/08/21 01:19:19;;;;;;;10.43;4.65;;;21.50;99.90;;;;;;5062354;28;20048;-87
2022/08/21 01:21:45;;;;;;;12.30;5.20;;;21.60;99.90;;;;;;5061034;28;20106;-77
2022/08/21 01:24:12;;;;;;;12.93;4.53;;;21.70;99.90;;;;;;5042844;28;20124;-81
2022/08/21 01:26:38;;;;;;;9.18;4.55;;;21.70;99.90;;;;;;5043190;28;20598;-90
2022/08/21 01:29:35;;;;;;;14.00;4.63;;;21.80;99.90;;;;;;5044821;28;20017;-86
2022/08/21 01:32:12;;;;;;;10.85;4.53;;;21.90;99.90;;;;;;5068428;28;20016;-81
2022/08/21 01:34:41;;;;;;;12.18;6.53;;;22.00;99.90;;;;;;5072330;28;20035;-75
2022/08/21 01:37:07;;;;;;;14.80;6.68;;;21.90;99.90;;;;;;5068994;28;20016;-89
2022/08/21 01:39:34;;;;;;;14.27;6.80;;;21.50;99.90;;;;;;5047823;28;20019;-82
2022/08/21 01:42:00;;;;;;;12.98;6.15;;;21.60;99.90;;;;;;5043928;28;20119;-84
2022/08/21 01:44:26;;;;;;;12.90;6.10;;;20.60;99.90;;;;;;5044725;28;20115;-84
2022/08/21 01:46:52;;;;;;;13.57;6.07;;;20.60;99.90;;;;;;5061799;28;20100;-81
2022/08/21 01:49:18;;;;;;;14.77;7.03;;;20.20;99.90;;;;;;5061931;28;20099;-79
2022/08/21 01:51:44;;;;;;;13.50;6.10;;;20.00;99.90;;;;;;5060896;28;20023;-76
2022/08/21 01:54:10;;;;;;;13.55;7.60;;;19.80;99.90;;;;;;5044936;28;20119;-76
2022/08/21 01:56:44;;;;;;;12.32;5.05;;;19.70;99.90;;;;;;5054567;28;20036;-80
2022/08/21 01:59:11;;;;;;;12.63;5.63;;;19.80;99.90;;;;;;5042774;28;20503;-76
2022/08/21 02:01:39;;;;;;;11.73;5.65;;;20.10;99.90;;;;;;5042894;28;20043;-74
2022/08/21 02:04:06;;;;;;;11.57;4.80;;;20.10;99.90;;;;;;5060314;28;20105;-80
2022/08/21 02:06:31;;;;;;;12.43;5.30;;;20.30;99.90;;;;;;5060543;28;20723;-88
2022/08/21 02:08:57;;;;;;;9.65;3.85;;;20.30;99.90;;;;;;5060471;28;20107;-91
2022/08/21 02:11:23;;;;;;;11.98;4.88;;;20.20;99.90;;;;;;5042434;28;20013;-83
2022/08/21 02:13:49;;;;;;;10.80;4.75;;;20.20;99.90;;;;;;5042411;28;20687;-78
2022/08/21 02:16:15;;;;;;;12.98;4.85;;;20.50;99.90;;;;;;5042088;28;20363;-90
2022/08/21 02:18:41;;;;;;;14.35;5.82;;;20.80;99.90;;;;;;5060037;28;20095;-87
2022/08/21 02:21:07;;;;;;;8.73;3.75;;;20.60;99.90;;;;;;5042359;28;20036;-88
2022/08/21 02:23:33;;;;;;;11.90;5.18;;;20.80;99.90;;;;;;5060335;28;20155;-76
2022/08/21 02:26:02;;;;;;;16.15;6.72;;;20.70;99.90;;;;;;5059721;28;20686;-74
2022/08/21 02:28:28;;;;;;;16.27;8.23;;;20.50;99.90;;;;;;5042060;28;20071;-82
2022/08/21 02:30:55;;;;;;;15.07;5.85;;;20.30;99.90;;;;;;5042396;28;20032;-83
2022/08/21 02:33:34;;;;;;;12.15;5.00;;;17.50;99.90;;;;;;5041636;28;20017;-73
2022/08/21 02:36:01;;;;;;;11.45;4.93;;;20.10;99.90;;;;;;5041866;28;20021;-91
2022/08/21 02:38:32;;;;;;;13.52;4.65;;;20.10;99.90;;;;;;5075580;28;20020;-84
2022/08/21 02:40:59;;;;;;;9.88;5.35;;;20.10;99.90;;;;;;5079805;28;20036;-74
2022/08/21 02:43:27;;;;;;;10.45;5.55;;;20.30;99.90;;;;;;5080002;28;20047;-87
2022/08/21 02:45:54;;;;;;;11.10;5.43;;;20.50;99.90;;;;;;5080302;28;20043;-85
2022/08/21 02:48:24;;;;;;;9.10;4.53;;;20.80;99.90;;;;;;5061398;28;20031;-88
2022/08/21 02:51:14;;;;;;;9.43;4.78;;;21.00;99.90;;;;;;5079784;28;20020;-76
2022/08/21 02:53:41;;;;;;;10.45;5.43;;;21.20;99.90;;;;;;5079798;28;20223;-89
2022/08/21 02:56:10;;;;;;;10.23;5.35;;;21.20;99.90;;;;;;5080234;28;20105;-74
2022/08/21 02:58:41;;;;;;;15.07;6.85;;;21.40;99.90;;;;;;5081587;28;20028;-77
2022/08/21 03:01:10;;;;;;;11.88;6.22;;;21.00;99.90;;;;;;5061623;28;20029;-86
2022/08/21 03:03:42;;;;;;;12.65;5.57;;;20.60;99.90;;;;;;5040476;28;20021;-93
2022/08/21 03:06:10;;;;;;;14.50;5.93;;;20.30;99.90;;;;;;5039681;28;20704;-85
2022/08/21 03:08:37;;;;;;;12.40;6.38;;;19.80;99.90;;;;;;5038048;28;20701;-77
2022/08/21 03:11:03;;;;;;;14.02;6.35;;;19.50;99.90;;;;;;5037911;28;20028;-82
2022/08/21 03:13:29;;;;;;;12.52;5.55;;;19.50;99.90;;;;;;5039148;28;20023;-77
2022/08/21 03:15:56;;;;;;;13.80;6.22;;;19.30;99.90;;;;;;5037366;28;20025;-81
2022/08/21 03:18:22;;;;;;;14.18;6.53;;;19.20;99.90;;;;;;5040355;28;20074;-77
2022/08/21 03:20:48;;;;;;;14.00;6.60;;;19.10;99.90;;;;;;5046979;28;20029;-90
2022/08/21 03:23:15;;;;;;;14.10;6.50;;;;;;;;;;5055435;28;20527;-83
2022/08/21 03:25:41;;;;;;;15.48;7.30;;;18.90;99.90;;;;;;5068092;28;20055;-78
2022/08/21 03:28:13;;;;;;;10.85;5.13;;;18.80;99.90;;;;;;5058260;28;20699;-84
2022/08/21 03:30:41;;;;;;;11.85;4.95;;;19.70;99.90;;;;;;5058519;28;20025;-83
2022/08/21 03:33:07;;;;;;;13.25;5.72;;;19.40;99.90;;;;;;5058334;28;20024;-75
2022/08/21 03:35:33;;;;;;;12.85;6.25;;;19.60;99.90;;;;;;5058628;28;20021;-74
2022/08/21 03:37:59;;;;;;;13.13;5.53;;;20.00;99.90;;;;;;5058649;28;20025;-79
2022/08/21 03:40:25;;;;;;;10.15;4.85;;;20.20;99.90;;;;;;5058595;28;20107;-85
2022/08/21 03:42:51;;;;;;;10.93;5.32;;;20.50;99.90;;;;;;5058431;28;20033;-84
2022/08/21 03:45:18;;;;;;;11.18;5.20;;;20.60;99.90;;;;;;5065139;28;20021;-77
2022/08/21 03:47:58;;;;;;;11.13;5.78;;;20.50;99.90;;;;;;5072499;28;20027;-74
2022/08/21 03:50:26;;;;;;;13.40;5.05;;;20.70;99.90;;;;;;5075710;28;20020;-80
2022/08/21 03:52:52;;;;;;;15.18;6.05;;;20.80;99.90;;;;;;5076942;28;20023;-79
2022/08/21 03:55:18;;;;;;;11.38;4.95;;;21.00;99.90;;;;;;5068800;28;20028;-73
2022/08/21 03:57:44;;;;;;;19.15;5.28;;;21.00;99.90;;;;;;5067908;28;20696;-79
2022/08/21 04:00:12;;;;;;;12.32;5.90;;;21.00;99.90;;;;;;5067789;28;20068;-81
2022/08/21 04:02:39;;;;;;;12.40;5.57;;;21.00;99.90;;;;;;5068757;28;20012;-80
2022/08/21 04:05:06;;;;;;;11.32;5.13;;;21.10;99.90;;;;;;5070035;28;20099;-84
2022/08/21 04:07:32;;;;;;;14.90;5.32;;;21.30;99.90;;;;;;5078047;28;20024;-78
2022/08/21 04:09:57;;;;;;;14.15;5.55;;;21.20;99.90;;;;;;5079013;28;20020;-84
2022/08/21 04:12:23;;;;;;;11.55;4.82;;;21.20;99.90;;;;;;5078793;28;20016;-88
2022/08/21 04:14:51;;;;;;;9.70;4.90;;;21.30;99.90;;;;;;5061089;28;20020;-81
2022/08/21 04:17:17;;;;;;;10.13;5.35;;;21.40;99.90;;;;;;5060943;28;20059;-85
2022/08/21 04:19:44;;;;;;;10.77;4.82;;;;;;;;;;5078421;28;20019;-83
2022/08/21 04:22:10;;;;;;;12.25;4.63;;;21.50;99.90;;;;;;5078346;28;20135;-86
2022/08/21 04:24:36;;;;;;;11.68;5.57;;;21.50;99.90;;;;;;5078816;28;20733;-91
2022/08/21 04:27:01;;;;;;;13.38;5.57;;;21.50;99.90;;;;;;5060855;28;20017;-75
2022/08/21 04:29:28;;;;;;;12.05;4.97;;;21.40;99.90;;;;;;5078372;28;20666;-84
2022/08/21 04:31:54;;;;;;;14.15;5.28;;;21.50;99.90;;;;;;5077865;28;20012;-75
2022/08/21 04:34:20;;;;;;;11.20;4.95;;;21.60;99.90;;;;;;5060399;28;20028;-88
2022/08/21 04:36:45;;;;;;;15.15;5.28;;;20.10;99.90;;;;;;5059581;28;20017;-75
2022/08/21 04:39:11;;;;;;;11.10;4.82;;;21.50;99.90;;;;;;5060194;28;20032;-76
2022/08/21 04:41:40;;;;;;;10.82;4.90;;;21.40;99.90;;;;;;5077960;28;20119;-78
2022/08/21 04:44:06;;;;;;;11.50;5.32;;;21.30;99.90;;;;;;5078153;28;20016;-80
2022/08/21 04:46:32;;;;;;;11.30;5.80;;;21.30;99.90;;;;;;5077919;28;20012;-79
2022/08/21 04:48:58;;;;;;;10.90;5.20;;;21.30;99.90;;;;;;5077824;28;20039;-80
2022/08/21 04:51:29;;;;;;;9.63;4.95;;;21.30;99.90;;;;;;5059655;28;20115;-77
2022/08/21 04:54:11;;;;;;;14.68;5.65;;;21.30;99.90;;;;;;5081242;28;20082;-76
2022/08/21 04:56:41;;;;;;;14.32;6.82;;;20.30;99.90;;;;;;5084019;28;20051;-83
2022/08/21 04:59:15;;;;;;;12.88;5.50;;;21.20;99.90;;;;;;5084600;28;20017;-79
2022/08/21 05:01:43;;;;;;;13.82;6.22;;;20.00;99.90;;;;;;5054876;28;20063;-81
2022/08/21 05:04:12;;;;;;;11.93;5.22;;;20.80;99.90;;;;;;5044909;28;20020;-82
2022/08/21 05:06:40;;;;;;;16.55;5.40;;;20.80;99.90;;;;;;5065447;28;20020;-75
2022/08/21 05:09:06;;;;;;;13.45;6.35;;;20.80;99.90;;;;;;5072171;28;20027;-74
2022/08/21 05:11:32;;;;;;;12.48;5.57;;;20.80;99.90;;;;;;5070880;28;20013;-75
2022/08/21 05:13:59;;;;;;;11.88;5.40;;;20.70;99.90;;;;;;5047847;28;20036;-74
2022/08/21 05:16:26;;;;;;;11.75;4.43;;;20.80;99.90;;;;;;5061417;28;20082;-74
2022/08/21 05:18:52;;;;;;;10.00;4.32;;;20.90;99.90;;;;;;5043848;28;20418;-74
2022/08/21 05:21:17;;;;;;;9.98;3.90;;;21.10;99.90;;;;;;5043225;28;20047;-84
2022/08/21 05:23:43;;;;;;;10.00;5.03;;;19.80;99.90;;;;;;5061290;28;20207;-75
2022/08/21 05:26:09;;;;;;;8.63;4.47;;;;;;;;;;5061623;28;20030;-81
2022/08/21 05:28:35;;;;;;;11.55;5.20;;;21.50;99.90;;;;;;5043115;28;20048;-75
2022/08/21 05:31:01;;;;;;;9.82;4.47;;;21.80;99.90;;;;;;5060653;28;20102;-80
2022/08/21 05:33:27;;;;;;;12.68;5.00;;;21.70;99.90;;;;;;5060890;28;20008;-76
2022/08/21 05:35:57;;;;;;;16.90;6.45;;;21.80;99.90;;;;;;5060822;28;20047;-79
2022/08/21 05:38:28;;;;;;;11.45;4.57;;;21.50;99.90;;;;;;5060901;28;20079;-89
2022/08/21 05:40:57;;;;;;;11.48;5.55;;;21.70;99.90;;;;;;5060406;28;20032;-76
2022/08/21 05:43:22;;;;;;;9.68;4.57;;;21.70;99.90;;;;;;5061163;28;20009;-84
2022/08/21 05:45:48;;;;;;;10.77;4.40;;;21.80;99.90;;;;;;5043331;28;20174;-78
2022/08/21 05:48:23;;;;;;;9.35;3.97;;;21.90;99.90;;;;;;5060919;28;20180;-77
2022/08/21 05:50:50;;;;;;;10.63;5.00;;;21.90;99.90;;;;;;5060918;28;20008;-79
2022/08/21 05:53:17;;;;;;;10.90;4.53;;;21.80;99.90;;;;;;5045981;28;20031;-81
2022/08/21 05:55:44;;;;;;;11.63;5.40;;;20.90;99.90;;;;;;5081085;28;20383;-77
2022/08/21 05:58:10;;;;;;;11.05;5.22;;;22.60;99.90;;;;;;5081120;28;20032;-82
2022/08/21 06:00:36;;;;;;;11.35;5.60;;;21.90;99.90;;;;;;5069475;28;20094;-78
2022/08/21 06:03:02;;;;;;;12.98;5.80;;;22.00;99.90;;;;;;5038914;28;20043;-78
2022/08/21 06:05:27;;;;;;;13.18;5.18;;;22.00;99.90;;;;;;5040291;28;20677;-86
2022/08/21 06:07:54;;;;;;;12.38;4.72;;;22.00;99.90;;;;;;5040339;28;20025;-81
2022/08/21 06:10:20;;;;;;;13.65;5.47;;;21.90;99.90;;;;;;5038844;28;20025;-83
2022/08/21 06:12:46;;;;;;;10.10;4.75;;;21.90;99.90;;;;;;5038754;28;20025;-75
2022/08/21 06:15:11;;;;;;;10.20;4.70;;;22.00;99.90;;;;;;5040103;28;20032;-80
2022/08/21 06:17:37;;;;;;;11.05;5.75;;;21.90;99.90;;;;;;5039807;28;20048;-75
2022/08/21 06:20:04;;;;;;;11.77;6.32;;;22.00;99.90;;;;;;5039063;28;20553;-76
2022/08/21 06:22:30;;;;;;;11.90;5.70;;;23.80;99.90;;;;;;5048030;28;20074;-82
2022/08/21 06:24:59;;;;;;;12.27;5.70;;;21.80;99.90;;;;;;5042162;28;20024;-75
2022/08/21 06:27:25;;;;;;;9.15;4.60;;;21.80;99.90;;;;;;5059638;28;20021;-73
2022/08/21 06:29:51;;;;;;;12.40;4.88;;;21.50;99.90;;;;;;5042690;28;20769;-80
2022/08/21 06:32:16;;;;;;;10.52;5.00;;;21.60;99.90;;;;;;5060283;28;20024;-74
2022/08/21 06:34:43;;;;;;;10.85;5.00;;;21.70;99.90;;;;;;5042751;28;20020;-88
2022/08/21 06:37:11;;;;;;;12.05;5.55;;;21.80;99.90;;;;;;5060819;28;20028;-81
2022/08/21 06:39:36;;;;;;;11.90;5.38;;;21.90;99.90;;;;;;5042958;28;20024;-74
2022/08/21 06:42:03;;;;;;;11.93;5.43;;;21.70;99.90;;;;;;5059526;28;20528;-75
2022/08/21 06:44:30;;;;;;;12.60;6.03;;;21.70;99.90;;;;;;5060989;28;20085;-79
2022/08/21 06:46:59;;;;;;;14.13;6.45;;;21.70;99.90;;;;;;5060309;28;20020;-88
2022/08/21 06:49:25;;;;;;;12.80;5.40;;;;;;;;;;5042719;28;20018;-82
2022/08/21 06:52:00;;;;;;;17.10;8.02;;;21.60;99.90;;;;;;5060764;28;20025;-76
2022/08/21 06:54:28;;;;;;;10.18;5.53;;;21.50;99.90;;;;;;5046607;28;20039;-79
2022/08/21 06:56:54;;;;;;;12.15;5.78;;;21.50;99.90;;;;;;5045673;28;20039;-74
2022/08/21 06:59:20;;;;;;;9.93;5.00;;;23.20;99.90;;;;;;5048032;28;20104;-80
2022/08/21 07:01:46;;;;;;;13.55;5.35;;;23.30;99.90;;;;;;5066048;28;20346;-80
2022/08/21 07:04:12;;;;;;;12.68;5.93;;;21.70;99.90;;;;;;5045397;28;20036;-75
2022/08/21 07:06:37;;;;;;;13.40;5.47;;;21.80;99.90;;;;;;5044716;28;20029;-84
2022/08/21 07:09:03;;;;;;;10.93;5.07;;;21.90;99.90;;;;;;5044893;28;20021;-81
2022/08/21 07:11:29;;;;;;;9.85;4.55;;;22.10;99.90;;;;;;5043695;28;20427;-81
2022/08/21 07:13:56;;;;;;;11.70;6.20;;;21.90;99.90;;;;;;5064010;28;20412;-81
2022/08/21 07:16:23;;;;;;;12.43;5.38;;;22.10;99.90;;;;;;5052848;28;20016;-83
2022/08/21 07:18:49;;;;;;;10.73;5.13;;;21.10;99.90;;;;;;5053585;28;20029;-76
2022/08/21 07:21:16;;;;;;;12.88;5.57;;;22.40;99.90;;;;;;5057196;28;20534;-78
2022/08/21 07:23:45;;;;;;;11.95;5.32;;;22.00;99.90;;;;;;5070982;28;20114;-86
2022/08/21 07:26:12;;;;;;;12.32;4.90;;;22.00;99.90;;;;;;5067974;28;20040;-82
2022/08/21 07:28:38;;;;;;;11.63;4.82;;;22.00;99.90;;;;;;5065300;28;20690;-83
2022/08/21 07:31:05;;;;;;;12.70;5.05;;;21.90;99.90;;;;;;5066482;28;20023;-84
2022/08/21 07:33:34;;;;;;;16.33;6.07;;;21.80;99.90;;;;;;5070822;28;20021;-74
2022/08/21 07:36:00;;;;;;;17.85;6.22;;;21.60;99.90;;;;;;5066021;28;20047;-87
2022/08/21 07:38:32;;;;;;;17.08;7.60;;;21.40;99.90;;;;;;5047849;28;20021;-78
2022/08/21 07:41:01;;;;;;;16.02;7.20;;;20.90;99.90;;;;;;5063715;28;20193;-74
2022/08/21 07:43:28;;;;;;;15.65;6.75;;;20.50;99.90;;;;;;5044583;28;20025;-77
2022/08/21 07:45:54;;;;;;;21.40;7.82;;;20.10;99.90;;;;;;5061957;28;20649;-76
2022/08/21 07:48:21;;;;;;;18.98;7.35;;;20.00;99.90;;;;;;5042216;28;20047;-85
2022/08/21 07:50:48;;;;;;;18.45;7.55;;;19.90;99.90;;;;;;5058804;28;20012;-84
2022/08/21 07:53:14;;;;;;;18.15;8.95;;;;;;;;;;5040569;28;20025;-74
2022/08/21 07:55:40;;;;;;;21.50;9.00;;;19.60;99.90;;;;;;5057740;28;20020;-76
2022/08/21 07:58:06;;;;;;;23.42;8.73;;;19.40;99.90;;;;;;5058422;28;20056;-82
2022/08/21 08:00:35;;;;;;;17.95;7.90;;;19.30;99.90;;;;;;5043184;28;20039;-74
2022/08/21 08:03:17;;;;;;;16.83;7.82;;;19.20;99.90;;;;;;5065508;28;20073;-89
2022/08/21 08:05:43;;;;;;;15.63;7.70;;;19.20;99.90;;;;;;5064396;28;20027;-83
2022/08/21 08:08:15;;;;;;;17.52;7.65;;;19.40;99.90;;;;;;5052437;28;20080;-77
2022/08/21 08:10:42;;;;;;;9.80;5.57;;;19.00;99.90;;;;;;5070761;28;20044;-85
2022/08/21 08:13:09;;;;;;;15.88;6.10;;;18.90;99.90;;;;;;5067170;28;20028;-88
2022/08/21 08:15:37;;;;;;;10.77;4.35;;;18.60;99.90;;;;;;5065625;28;20090;-77
2022/08/21 08:18:03;;;;;;;13.13;4.90;;;18.60;99.90;;;;;;5039971;28;20032;-78
2022/08/21 08:20:29;;;;;;;12.23;5.13;;;18.40;99.90;;;;;;5040745;28;20395;-85
2022/08/21 08:22:56;;;;;;;8.68;3.58;;;18.40;99.90;;;;;;5059789;28;20403;-81
2022/08/21 08:25:23;;;;;;;7.13;3.05;;;16.50;99.90;;;;;;5059206;28;20113;-81
2022/08/21 08:27:49;;;;;;;5.68;2.97;;;18.20;99.90;;;;;;5060049;28;20755;-87
2022/08/21 08:30:18;;;;;;;5.97;2.40;;;18.90;99.90;;;;;;5059478;28;20107;-89
2022/08/21 08:32:44;;;;;;;7.60;2.75;;;18.40;99.90;;;;;;5041090;28;20151;-84
2022/08/21 08:35:11;;;;;;;5.72;2.17;;;18.20;99.90;;;;;;5058645;28;20020;-76
2022/08/21 08:37:39;;;;;;;6.93;2.80;;;18.20;99.90;;;;;;5059666;28;20024;-78
2022/08/21 08:40:14;;;;;;;7.57;2.78;;;18.30;99.90;;;;;;5058442;28;20106;-85
2022/08/21 08:42:43;;;;;;;5.63;2.63;;;18.40;99.90;;;;;;5044522;28;20028;-83
2022/08/21 08:45:13;;;;;;;7.35;2.83;;;18.20;99.90;;;;;;5079141;28;20031;-79
2022/08/21 08:47:57;;;;;;;4.50;1.80;;;18.10;99.90;;;;;;5075353;28;20028;-86
2022/08/21 08:51:02;;;;;;;3.92;1.83;;;18.10;99.90;;;;;;5044891;28;20254;-81
2022/08/21 08:53:50;;;;;;;4.63;1.75;;;18.40;99.90;;;;;;5046118;28;20024;-85
2022/08/21 08:56:18;;;;;;;3.50;1.70;;;16.40;99.90;;;;;;5045630;28;20055;-86
2022/08/21 08:58:46;;;;;;;5.00;1.70;;;18.00;99.90;;;;;;5068749;28;20494;-74
2022/08/21 09:01:19;;;;;;;4.07;1.50;;;17.60;99.90;;;;;;5075173;28;20028;-84
2022/08/21 09:03:49;;;;;;;;;;;18.40;99.90;;;;;;5069602;28;20098;-87
2022/08/21 09:06:27;;;;;;;5.05;1.75;;;18.20;99.90;;;;;;5052247;28;19987;-90
2022/08/21 09:09:11;;;;;;;5.95;2.05;;;17.80;99.90;;;;;;5070929;28;20055;-86
2022/08/21 09:12:04;;;;;;;6.25;2.45;;;17.90;99.90;;;;;;5055266;28;20243;-80
2022/08/21 09:14:48;;;;;;;5.35;1.90;;;17.90;99.90;;;;;;5063900;28;20059;-77
2022/08/21 09:17:19;;;;;;;3.10;1.40;;;17.90;99.90;;;;;;5051786;28;20020;-82
2022/08/21 09:20:06;;;;;;;4.22;1.52;;;18.10;99.90;;;;;;5061154;28;20027;-71
2022/08/21 09:23:02;;;;;;;4.55;1.67;;;18.00;99.90;;;;;;4993988;28;20050;-81
2022/08/21 09:25:33;;;;;;;6.47;2.00;;;16.40;99.90;;;;;;4995017;28;20034;-87
2022/08/21 09:28:01;;;;;;;5.20;1.30;;;18.90;99.90;;;;;;4997277;28;20034;-81
2022/08/21 09:30:30;;;;;;;5.13;1.65;;;16.60;99.90;;;;;;4999075;28;20133;-83
2022/08/21 09:32:56;;;;;;;5.10;1.98;;;18.20;99.90;;;;;;4982077;28;20665;-78
2022/08/21 09:35:24;;;;;;;4.95;1.90;;;18.20;99.90;;;;;;4998347;28;20022;-82
2022/08/21 09:37:54;;;;;;;2.42;1.08;;;18.30;99.90;;;;;;4998939;28;20030;-78
2022/08/21 09:40:42;;;;;;;3.22;1.15;;;18.30;99.90;;;;;;4981952;28;20547;-81
2022/08/21 09:43:13;;;;;;;7.80;2.25;;;18.30;99.90;;;;;;4998849;28;20517;-83
2022/08/21 09:45:41;;;;;;;5.30;1.50;;;18.20;99.90;;;;;;4999237;28;20061;-81
2022/08/21 09:48:29;;;;;;;4.45;1.90;;;18.20;99.90;;;;;;4999204;28;20347;-84
2022/08/21 09:51:12;;;;;;;6.13;1.45;;;18.20;99.90;;;;;;4982842;28;20030;-78
2022/08/21 09:53:43;;;;;;;4.55;1.70;;;18.40;99.90;;;;;;4999484;28;20708;-82
2022/08/21 09:59:23;;;;;;;5.05;2.13;;;18.30;99.90;;;;;;5013638;28;20035;-80
2022/08/21 10:01:54;;;;;;;3.00;1.33;;;18.30;99.90;;;;;;5041586;28;20029;-74
2022/08/21 10:04:32;;;;;;;4.68;1.58;;;18.10;99.90;;;;;;5079361;28;20729;-82
2022/08/21 10:07:12;;;;;;;4.82;1.85;;;18.60;99.90;;;;;;5064975;28;20045;-81
2022/08/21 10:09:39;;;;;;;2.72;1.27;;;18.40;99.90;;;;;;5061752;28;20510;-78
2022/08/21 10:12:38;;;;;;;7.10;2.60;;;18.60;99.90;;;;;;5061320;28;20031;-75
2022/08/21 10:15:04;;;;;;;4.90;1.77;;;;;;;;;;5059478;28;20033;-88
2022/08/21 10:17:51;;;;;;;3.65;1.40;;;18.60;99.90;;;;;;5060688;28;20029;-80
2022/08/21 10:20:28;;;;;;;3.90;1.30;;;19.00;99.90;;;;;;5061802;28;20033;-86
2022/08/21 10:23:10;;;;;;;3.05;1.10;;;18.80;99.90;;;;;;5055212;28;20043;-89
2022/08/21 10:26:15;;;;;;;2.92;1.25;;;19.00;99.90;;;;;;5080686;28;20048;-78
2022/08/21 10:28:55;;;;;;;;;;;19.10;99.90;;;;;;4980093;28;20122;-79
2022/08/21 10:31:26;;;;;;;3.70;1.40;;;19.30;99.90;;;;;;4972678;28;20118;-82
2022/08/21 10:34:13;;;;;;;2.28;1.08;;;19.30;99.90;;;;;;4973189;28;20102;-74
2022/08/21 10:36:56;;;;;;;5.90;1.50;;;19.50;99.90;;;;;;4978850;28;20031;-85
2022/08/21 10:39:36;;;;;;;2.63;1.13;;;19.40;99.90;;;;;;4978915;28;20101;-88
2022/08/21 10:42:19;;;;;;;2.30;0.80;;;19.80;99.90;;;;;;4983190;28;20038;-77
2022/08/21 10:45:11;;;;;;;2.78;0.90;;;19.40;99.90;;;;;;4961648;28;20419;-80
2022/08/21 10:47:51;;;;;;;4.07;1.38;;;19.40;99.90;;;;;;4968667;28;20033;-78
2022/08/21 10:50:28;;;;;;;2.72;1.30;;;19.40;99.90;;;;;;4967774;28;20027;-88
2022/08/21 10:53:31;;;;;;;3.28;1.42;;;19.10;99.90;;;;;;4967505;28;20027;-88
2022/08/21 10:56:16;;;;;;;2.78;1.30;;;19.30;99.90;;;;;;4953115;28;20031;-85
2022/08/21 10:59:12;;;;;;;3.78;1.30;;;19.20;99.90;;;;;;4965027;28;20107;-75
2022/08/21 11:02:08;;;;;;;2.88;1.30;;;19.20;99.90;;;;;;4951279;28;20043;-82
2022/08/21 11:04:52;;;;;;;2.80;1.10;;;19.20;99.90;;;;;;5059096;28;20078;-76
2022/08/21 11:07:32;;;;;;;3.53;1.42;;;19.20;99.90;;;;;;5059253;28;20020;-80
2022/08/21 11:10:21;;;;;;;3.45;1.50;;;19.00;99.90;;;;;;5063060;28;20759;-74
2022/08/21 11:12:58;;;;;;;4.15;1.30;;;19.20;99.90;;;;;;5071793;28;20111;-74
2022/08/21 11:15:30;;;;;;;5.70;1.48;;;18.50;99.90;;;;;;5054287;28;20017;-85
2022/08/21 11:18:22;;;;;;;4.97;1.67;;;19.30;99.90;;;;;;5054492;28;20012;-75
2022/08/21 11:21:31;;;;;;;2.47;1.25;;;19.40;99.90;;;;;;5070886;28;20036;-76
2022/08/21 11:24:34;;;;;;;3.25;1.17;;;19.50;99.90;;;;;;5061365;28;20047;-77
2022/08/21 11:27:16;;;;;;;4.10;1.23;;;19.80;99.90;;;;;;5060129;28;20058;-73
2022/08/21 11:29:52;;;;;;;2.88;1.08;;;19.70;99.90;;;;;;5059075;28;20066;-75
2022/08/21 11:32:42;;;;;;;2.58;1.00;;;19.80;99.90;;;;;;5059575;28;20039;-73
2022/08/21 11:35:35;;;;;;;2.08;0.82;;;19.80;99.90;;;;;;5054809;28;20020;-80
2022/08/21 11:38:30;;;;;;;4.43;1.20;;;19.80;99.90;;;;;;5050410;28;20023;-79
2022/08/21 11:41:24;;;;;;;6.10;2.30;;;17.50;99.90;;;;;;5051763;28;20028;-87
2022/08/21 11:43:58;;;;;;;5.00;1.38;;;20.00;99.90;;;;;;5043152;28;20026;-81
2022/08/21 11:46:54;;;;;;;1.85;1.02;;;19.90;99.90;;;;;;5071249;28;20025;-91
2022/08/21 11:49:32;;;;;;;1.55;0.82;;;19.90;99.90;;;;;;5073246;28;20116;-78
2022/08/21 11:52:43;;;;;;;3.00;1.20;;;19.80;99.90;;;;;;5063558;28;20043;-77
2022/08/21 11:55:53;;;;;;;2.78;1.05;;;19.70;99.90;;;;;;4973808;28;20673;-82
2022/08/21 11:58:54;;;;;;;2.58;1.10;;;17.70;99.90;;;;;;4916068;29;20035;-90
2022/08/21 12:01:33;;;;;;;2.47;1.17;;;19.80;99.90;;;;;;4909148;29;20115;-87
2022/08/21 12:03:59;;;;;;;2.67;1.27;;;;;;;;;;4887222;29;20035;-78
2022/08/21 12:06:38;;;;;;;6.05;1.50;;;19.50;99.90;;;;;;4902214;29;20044;-89
2022/08/21 12:09:28;;;;;;;4.60;1.70;;;19.90;99.90;;;;;;4892476;29;20142;-83
2022/08/21 12:12:29;;;;;;;3.63;1.60;;;19.40;99.90;;;;;;4872002;29;20073;-90
2022/08/21 12:15:26;;;;;;;4.95;1.30;;;19.60;99.90;;;;;;4847668;29;20065;-90
2022/08/21 12:18:00;;;;;;;4.47;1.58;;;17.80;99.90;;;;;;4828777;29;20780;-87
2022/08/21 12:20:56;;;;;;;3.03;1.35;;;19.30;99.90;;;;;;4849318;29;20733;-76
2022/08/21 12:23:42;;;;;;;4.88;1.98;;;19.20;99.90;;;;;;4846258;29;20065;-90
2022/08/21 12:28:44;;;;;;;3.58;1.55;;;;;;;;;;5070893;26;20055;-79
2022/08/21 12:31:28;;;;;;;5.32;1.92;;;20.00;99.90;;;;;;5068538;28;20061;-78
2022/08/21 12:34:02;;;;;;;4.13;1.80;;;19.20;99.90;;;;;;5064814;28;20623;-94
2022/08/21 12:37:11;;;;;;;4.95;1.92;;;19.40;99.90;;;;;;5065880;28;20524;-84
2022/08/21 12:39:42;;;;;;;6.03;2.85;;;19.50;99.90;;;;;;4966590;28;20034;-91
2022/08/21 12:42:55;;;;;;;5.13;2.30;;;19.60;99.90;;;;;;4987462;28;20814;-91
2022/08/21 12:45:46;;;;;;;4.10;1.85;;;19.70;99.90;;;;;;4890311;29;20016;-92
2022/08/21 12:48:33;;;;;;;5.28;2.17;;;19.70;99.90;;;;;;4845657;29;20765;-78
2022/08/21 12:51:16;;;;;;;5.22;2.00;;;19.80;99.90;;;;;;4863219;29;20109;-85
2022/08/21 12:53:45;;;;;;;3.78;1.95;;;20.00;99.90;;;;;;4864080;29;20029;-79
2022/08/21 12:56:14;;;;;;;3.20;1.50;;;19.60;99.90;;;;;;4864695;29;20120;-88
2022/08/21 12:58:44;;;;;;;3.63;1.50;;;19.60;99.90;;;;;;4864072;29;20064;-85
2022/08/21 13:01:23;;;;;;;6.60;1.80;;;19.60;99.90;;;;;;4863829;29;20129;-88
2022/08/21 13:03:50;;;;;;;4.35;1.50;;;19.20;99.90;;;;;;4867858;29;20188;-77
2022/08/21 13:06:19;;;;;;;6.97;2.15;;;19.50;99.90;;;;;;4856365;29;20219;-80
2022/08/21 13:08:47;;;;;;;4.43;2.00;;;18.90;99.90;;;;;;4863416;29;20044;-85
2022/08/21 13:11:17;;;;;;;4.35;1.83;;;19.50;99.90;;;;;;4863423;29;20041;-79
2022/08/21 13:13:54;;;;;;;4.15;2.17;;;19.30;99.90;;;;;;4933481;28;20035;-91